Time;durP1;ratioP1;P1;durP2;ratioP2;P2;SDS_P1;SDS_P2;PMS_P1;PMS_P2;Temp;Humidity;BMP_temperature;BMP_pressure;BME280_temperature;BME280_humidity;BME280_pressure;Samples;Min_cycle;Max_cycle;Signal;HPM_P1;HPM_P2
2021/11/16 00:01:08;;;;;;;43.03;23.58;;;;;;;14.63;65.71;101563.31;4862848;29;20484;-96
2021/11/16 00:03:34;;;;;;;40.40;21.75;;;;;;;14.61;65.37;101565.19;4862149;29;20029;-95
2021/11/16 00:06:00;;;;;;;46.85;24.17;;;;;;;14.59;65.40;101558.31;4862541;29;20036;-95
2021/11/16 00:08:25;;;;;;;43.50;22.08;;;;;;;14.66;65.57;101559.59;4862354;29;20037;-96
2021/11/16 00:10:51;;;;;;;54.55;27.27;;;;;;;14.51;65.69;101556.13;4862448;29;20035;-96
2021/11/16 00:13:16;;;;;;;53.92;28.40;;;;;;;14.42;65.57;101551.47;4861982;29;20373;-95
2021/11/16 00:15:44;;;;;;;55.60;27.90;;;;;;;14.36;65.96;101559.81;4861312;29;20029;-95
2021/11/16 00:18:10;;;;;;;58.00;29.73;;;;;;;14.42;66.35;101562.03;4862015;29;20064;-96
2021/11/16 00:20:41;;;;;;;59.50;29.13;;;;;;;14.44;66.01;101555.72;4862056;29;20041;-95
2021/11/16 00:23:14;;;;;;;46.67;26.35;;;;;;;14.49;66.15;101550.09;4862085;29;20120;-96
2021/11/16 00:25:40;;;;;;;47.47;26.05;;;;;;;14.50;65.99;101548.34;4861980;29;20112;-96
2021/11/16 00:28:05;;;;;;;52.45;26.40;;;;;;;14.50;65.74;101546.53;4861529;29;20120;-95
2021/11/16 00:30:31;;;;;;;44.30;25.02;;;;;;;14.51;66.15;101550.00;4861715;29;20119;-96
2021/11/16 00:32:56;;;;;;;49.22;27.00;;;;;;;14.31;66.56;101540.75;4862197;29;20038;-96
2021/11/16 00:35:22;;;;;;;49.53;27.13;;;;;;;14.22;66.14;101544.88;4862262;29;20029;-96
2021/11/16 00:37:47;;;;;;;44.83;25.20;;;;;;;14.26;66.58;101539.28;4861919;29;20060;-96
2021/11/16 00:40:18;;;;;;;43.70;23.85;;;;;;;14.23;66.76;101536.81;4861878;29;20037;-96
2021/11/16 00:42:44;;;;;;;43.70;23.53;;;;;;;14.28;66.56;101529.44;4861463;29;20070;-95
2021/11/16 00:45:13;;;;;;;41.22;22.88;;;;;;;14.24;66.23;101527.13;4861305;29;20041;-94
2021/11/16 00:47:40;;;;;;;39.15;22.35;;;;;;;14.22;66.57;101521.94;4861343;29;20065;-96
2021/11/16 00:50:07;;;;;;;37.88;22.58;;;;;;;14.27;66.47;101516.34;4861829;29;20098;-95
2021/11/16 00:52:32;;;;;;;35.08;21.00;;;;;;;14.31;66.43;101519.63;4860986;29;20465;-95
2021/11/16 00:54:57;;;;;;;39.28;21.98;;;;;;;14.31;66.23;101523.09;4861531;29;20026;-96
2021/11/16 00:57:23;;;;;;;41.72;23.00;;;;;;;14.34;66.42;101514.16;4861434;29;20026;-96
2021/11/16 00:59:48;;;;;;;39.53;20.75;;;;;;;14.37;66.64;101516.56;4861960;29;20025;-96
2021/11/16 01:02:15;;;;;;;46.40;22.90;;;;;;;14.38;66.14;101516.47;4860804;29;20029;-96
2021/11/16 01:04:47;;;;;;;49.97;25.95;;;;;;;14.37;66.54;101508.66;4861394;29;20529;-96
2021/11/16 01:07:13;;;;;;;44.47;24.20;;;;;;;14.45;66.57;101498.41;4861481;29;20033;-96
2021/11/16 01:09:38;;;;;;;51.05;26.10;;;;;;;14.36;66.35;101494.59;4861290;29;20030;-95
2021/11/16 01:12:04;;;;;;;51.35;26.35;;;;;;;14.34;66.44;101495.66;4861378;29;20034;-96
2021/11/16 01:14:29;;;;;;;49.00;25.80;;;;;;;14.35;66.25;101492.06;4861389;29;20029;-96
2021/11/16 01:16:55;;;;;;;52.10;25.95;;;;;;;14.40;66.55;101488.16;4860273;29;20025;-95
2021/11/16 01:19:20;;;;;;;47.08;24.67;;;;;;;14.39;66.68;101485.63;4861016;29;20034;-96
2021/11/16 01:21:46;;;;;;;52.70;27.33;;;;;;;14.38;66.39;101491.88;4861256;29;20025;-96
2021/11/16 01:24:11;;;;;;;52.58;27.40;;;;;;;14.40;66.35;101484.69;4861137;29;20093;-96
2021/11/16 01:26:37;;;;;;;56.67;28.20;;;;;;;14.27;66.44;101482.81;4861707;29;20066;-96
2021/11/16 01:29:05;;;;;;;55.22;27.00;;;;;;;14.28;67.14;101476.63;4860886;29;20485;-96
2021/11/16 01:31:30;;;;;;;47.75;25.17;;;;;;;14.26;66.90;101482.97;4861061;29;20500;-96
2021/11/16 01:33:57;;;;;;;54.78;26.75;;;;;;;14.28;66.82;101481.91;4861358;29;20044;-96
2021/11/16 01:36:24;;;;;;;50.13;25.85;;;;;;;14.34;66.96;101474.53;4860682;29;20034;-96
2021/11/16 01:38:52;;;;;;;52.25;27.00;;;;;;;14.33;66.69;101475.47;4870179;29;20061;-96
2021/11/16 01:43:53;;;;;;;45.08;22.38;;;;;;;14.52;65.90;101469.78;4879077;29;20059;-96
2021/11/16 01:46:19;;;;;;;36.63;19.70;;;;;;;14.56;65.83;101458.06;4879215;29;20161;-96
2021/11/16 01:48:55;;;;;;;33.95;18.45;;;;;;;14.51;64.94;101468.94;4879417;29;20041;-96
2021/11/16 01:51:24;;;;;;;30.05;17.25;;;;;;;14.46;65.12;101460.47;4879086;29;20036;-96
2021/11/16 01:53:56;;;;;;;30.73;17.17;;;;;;;14.50;65.49;101459.31;4879084;29;20029;-96
2021/11/16 01:56:22;;;;;;;28.83;17.17;;;;;;;14.61;65.00;101455.97;4878439;29;20081;-96
2021/11/16 01:58:47;;;;;;;23.23;16.45;;;;;;;14.67;65.06;101455.53;4879375;29;20028;-96
2021/11/16 02:01:13;;;;;;;24.13;15.98;;;;;;;14.74;65.06;101450.69;4879048;29;20028;-96
2021/11/16 02:03:39;;;;;;;26.98;17.13;;;;;;;14.74;64.76;101434.84;4879081;29;20027;-96
2021/11/16 02:06:23;;;;;;;28.33;17.85;;;;;;;14.66;65.06;101444.13;4878559;29;20106;-96
2021/11/16 02:08:52;;;;;;;26.17;16.15;;;;;;;14.66;65.09;101440.66;4878912;29;20033;-96
2021/11/16 02:11:18;;;;;;;26.00;16.95;;;;;;;14.68;64.67;101442.22;4878793;29;20100;-96
2021/11/16 02:13:44;;;;;;;26.15;16.13;;;;;;;14.61;64.40;101430.41;4878339;29;20029;-96
2021/11/16 02:16:10;;;;;;;24.90;17.52;;;;;;;14.62;64.86;101441.81;4878808;29;20059;-96
2021/11/16 02:18:37;;;;;;;25.95;16.75;;;;;;;14.59;64.93;101437.59;4878808;29;20033;-96
2021/11/16 02:21:03;;;;;;;29.88;17.35;;;;;;;14.59;64.69;101439.38;4878898;29;20037;-96
2021/11/16 02:23:29;;;;;;;25.85;17.17;;;;;;;14.53;64.58;101427.38;4878561;29;20048;-96
2021/11/16 02:25:55;;;;;;;26.83;16.88;;;;;;;14.56;64.92;101421.94;4878804;29;20033;-96
2021/11/16 02:28:21;;;;;;;30.30;18.65;;;;;;;14.54;64.81;101423.81;4878572;29;20037;-96
2021/11/16 02:30:48;;;;;;;31.90;18.17;;;;;;;14.51;64.50;101421.34;4878853;29;20032;-96
2021/11/16 02:33:14;;;;;;;24.20;16.83;;;;;;;14.49;64.92;101425.91;4878470;29;20036;-96
2021/11/16 02:35:40;;;;;;;29.63;17.48;;;;;;;14.50;64.94;101417.03;4878904;29;20523;-96
2021/11/16 02:38:06;;;;;;;38.05;19.00;;;;;;;14.39;64.90;101409.81;4878592;29;20060;-96
2021/11/16 02:40:31;;;;;;;31.58;17.88;;;;;;;14.36;65.64;101420.63;4878066;29;20072;-96
2021/11/16 02:42:57;;;;;;;28.05;17.08;;;;;;;14.41;65.30;101417.66;4878693;29;20116;-96
2021/11/16 02:45:23;;;;;;;26.60;17.05;;;;;;;14.39;65.27;101422.19;4879017;29;20111;-96
2021/11/16 02:47:48;;;;;;;28.13;17.20;;;;;;;14.36;65.35;101417.16;4878680;29;20065;-96
2021/11/16 02:50:15;;;;;;;26.33;17.42;;;;;;;14.33;65.53;101417.34;4878636;29;20056;-96
2021/11/16 02:52:41;;;;;;;31.50;17.85;;;;;;;14.30;65.46;101418.41;4878237;29;20491;-95
2021/11/16 02:55:07;;;;;;;29.85;18.05;;;;;;;14.28;65.69;101422.94;4878093;29;20033;-95
2021/11/16 02:57:33;;;;;;;27.67;18.10;;;;;;;14.27;65.55;101426.50;4878366;29;20025;-96
2021/11/16 03:00:00;;;;;;;29.65;18.15;;;;;;;14.27;65.18;101424.72;4878588;29;20025;-95
2021/11/16 03:02:26;;;;;;;32.33;19.30;;;;;;;14.26;65.71;101419.56;4878397;29;20507;-94
2021/11/16 03:04:51;;;;;;;32.40;19.30;;;;;;;14.28;65.73;101422.94;4878173;29;20029;-96
2021/11/16 03:07:45;;;;;;;40.00;21.83;;;;;;;14.33;65.58;101414.69;4878354;29;20025;-96
2021/11/16 03:10:11;;;;;;;37.90;21.27;;;;;;;14.34;65.89;101411.13;4878484;29;20112;-95
2021/11/16 03:12:39;;;;;;;38.00;21.35;;;;;;;14.32;65.87;101407.72;4878208;29;20189;-95
2021/11/16 03:15:05;;;;;;;31.70;19.88;;;;;;;14.29;65.88;101409.59;4878582;29;20381;-95
2021/11/16 03:17:31;;;;;;;30.85;18.30;;;;;;;14.28;66.05;101410.56;4878155;29;20383;-95
2021/11/16 03:19:56;;;;;;;33.88;20.48;;;;;;;14.21;66.52;101417.19;4878018;29;20108;-96
2021/11/16 03:22:42;;;;;;;27.02;16.90;;;;;;;14.25;66.45;101405.47;4877918;29;20045;-96
2021/11/16 03:25:07;;;;;;;28.92;17.63;;;;;;;14.24;66.33;101401.16;4878769;29;20089;-96
2021/11/16 03:27:37;;;;;;;33.10;18.83;;;;;;;14.26;65.96;101401.91;4881152;29;20036;-96
2021/11/16 03:30:03;;;;;;;34.53;20.17;;;;;;;14.26;66.43;101393.13;4881894;29;20044;-93
2021/11/16 03:32:35;;;;;;;36.55;21.52;;;;;;;14.26;66.49;101391.34;4880242;29;20052;-94
2021/11/16 03:35:01;;;;;;;38.97;21.73;;;;;;;14.32;66.26;101381.31;4881775;29;20044;-94
2021/11/16 03:37:35;;;;;;;35.47;21.45;;;;;;;14.35;66.72;101386.38;4881564;29;20330;-94
2021/11/16 03:40:01;;;;;;;43.47;22.30;;;;;;;14.35;66.10;101376.63;4881577;29;20062;-94
2021/11/16 03:42:26;;;;;;;36.83;21.30;;;;;;;14.33;66.34;101383.00;4881290;29;20037;-94
2021/11/16 03:44:52;;;;;;;37.65;21.30;;;;;;;14.33;66.49;101383.00;4881731;29;20193;-95
2021/11/16 03:47:19;;;;;;;34.58;20.27;;;;;;;14.32;66.19;101386.59;4881932;29;20523;-95
2021/11/16 03:49:45;;;;;;;32.30;19.83;;;;;;;14.38;66.59;101391.47;4881043;29;20075;-95
2021/11/16 03:52:10;;;;;;;31.23;19.23;;;;;;;14.42;66.47;101382.38;4881191;29;20057;-94
2021/11/16 03:54:36;;;;;;;38.15;21.00;;;;;;;14.42;66.07;101379.72;4881630;29;20033;-93
2021/11/16 03:57:01;;;;;;;30.58;19.02;;;;;;;14.44;66.19;101378.66;4881218;29;20056;-95
2021/11/16 03:59:29;;;;;;;30.55;18.77;;;;;;;14.46;66.14;101383.84;4881348;29;20037;-95
2021/11/16 04:01:55;;;;;;;35.38;19.15;;;;;;;14.44;66.38;101380.47;4881020;29;20028;-95
2021/11/16 04:04:21;;;;;;;29.40;18.83;;;;;;;14.43;66.34;101378.75;4880895;29;20071;-95
2021/11/16 04:06:47;;;;;;;34.72;20.08;;;;;;;14.41;65.82;101381.50;4879611;29;20067;-95
2021/11/16 04:09:12;;;;;;;28.55;17.70;;;;;;;14.40;66.16;101373.72;4881092;29;20037;-93
2021/11/16 04:11:38;;;;;;;30.77;17.48;;;;;;;14.38;66.38;101376.44;4881001;29;20017;-96
2021/11/16 04:14:03;;;;;;;27.08;17.88;;;;;;;14.34;65.99;101374.13;4880772;29;20036;-95
2021/11/16 04:16:28;;;;;;;24.85;16.33;;;;;;;14.42;65.73;101377.94;4880976;29;20100;-95
2021/11/16 04:18:54;;;;;;;27.33;16.73;;;;;;;14.42;65.86;101374.44;4881108;29;20025;-95
2021/11/16 04:21:19;;;;;;;24.80;17.35;;;;;;;14.44;66.18;101367.25;4880943;29;20400;-95
2021/11/16 04:23:45;;;;;;;22.92;15.77;;;;;;;14.48;66.08;101366.94;4881020;29;20029;-95
2021/11/16 04:26:11;;;;;;;26.88;16.65;;;;;;;14.45;65.89;101368.94;4880889;29;20040;-95
2021/11/16 04:28:36;;;;;;;26.17;16.02;;;;;;;14.46;65.84;101358.25;4880721;29;20045;-95
2021/11/16 04:31:02;;;;;;;24.42;16.50;;;;;;;14.47;65.80;101361.75;4880620;29;20500;-95
2021/11/16 04:33:28;;;;;;;25.13;15.93;;;;;;;14.46;65.46;101358.25;4865716;29;20124;-95
2021/11/16 04:35:54;;;;;;;29.67;17.85;;;;;;;14.47;65.77;101344.13;4873912;29;20372;-94
2021/11/16 04:38:19;;;;;;;26.83;18.35;;;;;;;14.48;65.79;101347.59;4879593;29;20123;-94
2021/11/16 04:40:51;;;;;;;26.58;15.82;;;;;;;14.50;65.54;101345.69;4880816;29;20036;-95
2021/11/16 04:43:20;;;;;;;26.02;16.45;;;;;;;14.43;64.68;101345.25;4880307;29;20055;-96
2021/11/16 04:45:53;;;;;;;24.90;16.33;;;;;;;14.41;65.49;101341.03;4880316;29;20029;-94
2021/11/16 05:04:15;;;;;;;29.80;17.13;;;;;;;13.99;64.68;101327.19;4879978;29;20067;-96
2021/11/16 05:06:40;;;;;;;25.25;16.60;;;;;;;13.86;64.47;101322.75;4880364;29;20057;-96
2021/11/16 05:09:06;;;;;;;28.63;17.30;;;;;;;13.80;65.20;101317.88;4880091;29;20080;-96
2021/11/16 05:11:31;;;;;;;28.65;16.77;;;;;;;13.79;65.32;101316.16;4878275;29;20050;-96
2021/11/16 05:13:57;;;;;;;30.15;17.50;;;;;;;13.76;65.15;101321.63;4879486;29;20115;-96
2021/11/16 05:16:25;;;;;;;27.00;16.13;;;;;;;13.70;64.98;101311.50;4880060;29;20036;-94
2021/11/16 05:18:51;;;;;;;24.40;16.15;;;;;;;13.62;64.68;101305.88;4879828;29;20093;-96
2021/11/16 05:21:17;;;;;;;25.58;15.90;;;;;;;13.52;64.79;101313.56;4879935;29;20033;-96
2021/11/16 05:23:54;;;;;;;24.92;16.40;;;;;;;13.41;64.26;101316.91;4879560;29;20045;-96
2021/11/16 05:26:21;;;;;;;23.27;14.55;;;;;;;13.34;64.54;101312.97;4879870;29;20067;-96
2021/11/16 05:28:47;;;;;;;25.20;15.35;;;;;;;13.28;64.86;101315.97;4879123;29;20377;-95
2021/11/16 05:31:13;;;;;;;25.73;15.90;;;;;;;13.25;64.99;101316.16;4879590;29;20085;-96
2021/11/16 05:33:39;;;;;;;25.60;15.70;;;;;;;13.20;64.55;101318.28;4879677;29;20526;-95
2021/11/16 05:36:05;;;;;;;25.23;16.80;;;;;;;13.13;64.46;101319.59;4879556;29;20061;-96
2021/11/16 05:38:35;;;;;;;23.40;14.40;;;;;;;13.07;64.48;101324.34;4879090;29;20144;-93
2021/11/16 05:41:01;;;;;;;20.65;14.50;;;;;;;13.02;64.36;101326.41;4879688;29;20162;-94
2021/11/16 05:43:28;;;;;;;23.60;14.18;;;;;;;12.98;64.43;101330.19;4878930;29;20143;-92
2021/11/16 05:45:55;;;;;;;24.02;15.63;;;;;;;12.94;64.53;101328.69;4879229;29;20044;-96
2021/11/16 05:48:22;;;;;;;22.38;14.05;;;;;;;12.94;64.71;101328.69;4878796;29;20112;-96
2021/11/16 05:50:48;;;;;;;20.02;13.82;;;;;;;12.95;64.37;101335.63;4879313;29;20044;-96
2021/11/16 05:53:15;;;;;;;22.10;13.73;;;;;;;12.95;65.04;101330.38;4879052;29;20025;-95
2021/11/16 05:55:43;;;;;;;24.10;13.70;;;;;;;13.00;65.59;101332.72;4879428;29;20035;-94
2021/11/16 05:58:12;;;;;;;21.27;13.35;;;;;;;13.04;65.49;101327.16;4879203;29;20032;-93
2021/11/16 06:00:39;;;;;;;20.73;13.65;;;;;;;13.10;65.95;101323.28;4879005;29;20491;-94
2021/11/16 06:03:04;;;;;;;23.67;13.80;;;;;;;13.15;65.69;101328.25;4878913;29;20065;-94
2021/11/16 06:05:29;;;;;;;20.38;13.38;;;;;;;13.20;65.65;101329.66;4879394;29;20111;-94
2021/11/16 06:07:55;;;;;;;26.02;12.82;;;;;;;13.28;65.68;101329.16;4878868;29;20408;-93
2021/11/16 06:10:20;;;;;;;24.92;14.95;;;;;;;13.30;66.12;101327.31;4878920;29;20033;-94
2021/11/16 06:12:45;;;;;;;30.80;15.98;;;;;;;13.42;65.49;101331.78;4878756;29;20052;-95
2021/11/16 06:15:11;;;;;;;28.77;16.48;;;;;;;13.40;65.80;101333.69;4878983;29;20108;-93
2021/11/16 06:17:40;;;;;;;25.20;16.15;;;;;;;13.45;65.56;101333.41;4878709;29;20484;-94
2021/11/16 06:20:06;;;;;;;27.10;14.70;;;;;;;13.48;65.75;101341.09;4879075;29;20074;-94
2021/11/16 06:22:32;;;;;;;23.52;15.57;;;;;;;13.51;65.62;101334.75;4878715;29;20505;-94
2021/11/16 06:24:57;;;;;;;21.20;14.35;;;;;;;13.52;65.91;101329.38;4878041;29;20029;-94
2021/11/16 06:27:22;;;;;;;23.20;13.98;;;;;;;13.58;66.15;101328.16;4879013;29;20547;-94
2021/11/16 06:29:48;;;;;;;24.23;14.93;;;;;;;13.57;65.75;101332.59;4878561;29;20025;-94
2021/11/16 06:32:13;;;;;;;23.15;13.88;;;;;;;13.54;66.09;101332.78;4878995;29;20092;-94
2021/11/16 06:34:39;;;;;;;19.05;13.48;;;;;;;13.61;66.06;101330.59;4878541;29;20033;-94
2021/11/16 06:37:05;;;;;;;25.25;14.18;;;;;;;13.64;66.19;101327.72;4878683;29;20392;-93
2021/11/16 06:39:30;;;;;;;22.50;15.38;;;;;;;13.80;65.71;101327.56;4877980;29;20123;-94
2021/11/16 06:41:56;;;;;;;23.63;14.65;;;;;;;13.88;65.34;101326.13;4878548;29;20029;-93
2021/11/16 06:44:22;;;;;;;29.35;16.08;;;;;;;13.82;64.91;101331.81;4877870;29;20480;-94
2021/11/16 06:46:49;;;;;;;26.77;17.20;;;;;;;13.86;65.24;101338.56;4878871;29;20476;-93
2021/11/16 06:49:16;;;;;;;30.15;16.90;;;;;;;13.90;65.26;101333.91;4878333;29;20033;-93
2021/11/16 06:51:43;;;;;;;25.55;17.27;;;;;;;13.88;65.48;101330.53;4877620;29;20033;-94
2021/11/16 06:54:15;;;;;;;25.95;17.58;;;;;;;13.87;65.28;101329.69;4878254;29;20029;-93
2021/11/16 06:56:41;;;;;;;24.90;14.88;;;;;;;13.91;65.37;101337.41;4878124;29;20029;-94
2021/11/16 06:59:08;;;;;;;25.10;15.18;;;;;;;13.91;65.00;101332.97;4878673;29;20025;-93
2021/11/16 07:01:37;;;;;;;24.98;15.15;;;;;;;13.93;65.33;101333.72;4881797;29;20029;-93
2021/11/16 07:04:08;;;;;;;27.00;17.73;;;;;;;13.97;65.62;101329.91;4882665;29;20045;-94
2021/11/16 07:06:34;;;;;;;24.77;15.48;;;;;;;14.01;65.40;101333.19;4882469;29;20472;-94
2021/11/16 07:09:01;;;;;;;21.48;14.75;;;;;;;14.06;65.48;101325.81;4882191;29;20037;-94
2021/11/16 07:11:27;;;;;;;21.90;13.75;;;;;;;14.10;65.17;101329.94;4881844;29;20032;-93
2021/11/16 07:14:08;;;;;;;21.95;14.88;;;;;;;14.11;65.16;101323.69;4881503;29;20044;-94
2021/11/16 07:16:37;;;;;;;26.35;17.25;;;;;;;14.15;65.29;101319.91;4881952;29;20040;-93
2021/11/16 07:19:08;;;;;;;27.10;14.60;;;;;;;14.08;65.87;101319.47;4882139;29;20040;-94
2021/11/16 07:21:49;;;;;;;24.55;16.17;;;;;;;14.02;65.43;101317.25;4880808;29;20525;-94
2021/11/16 07:24:17;;;;;;;22.55;14.75;;;;;;;14.02;66.03;101319.03;4882094;29;20080;-95
2021/11/16 07:26:53;;;;;;;20.77;15.27;;;;;;;14.11;65.78;101313.13;4884905;29;20085;-96
2021/11/16 07:29:31;;;;;;;26.48;15.30;;;;;;;14.19;65.35;101308.16;4881789;29;20476;-95
2021/11/16 07:31:56;;;;;;;26.23;16.52;;;;;;;14.20;64.97;101301.13;4863203;29;20033;-94
2021/11/16 07:34:22;;;;;;;25.42;16.67;;;;;;;14.09;65.38;101307.13;4875679;29;20029;-94
2021/11/16 07:36:54;;;;;;;25.30;16.85;;;;;;;14.18;65.37;101303.00;4881421;29;20032;-94
2021/11/16 07:39:19;;;;;;;24.17;15.18;;;;;;;14.18;65.42;101298.56;4881077;29;20033;-93
2021/11/16 07:41:45;;;;;;;25.02;15.63;;;;;;;14.19;65.32;101294.97;4881259;29;20476;-94
2021/11/16 07:44:13;;;;;;;22.48;15.27;;;;;;;14.23;65.44;101303.53;4879048;29;20029;-92
2021/11/16 07:46:50;;;;;;;22.02;15.13;;;;;;;14.26;65.01;101300.69;4881494;29;20109;-95
2021/11/16 07:49:16;;;;;;;25.85;15.93;;;;;;;14.21;65.25;101295.69;4881647;29;20472;-94
2021/11/16 07:51:41;;;;;;;27.50;16.77;;;;;;;14.24;65.06;101306.06;4881885;29;20048;-94
2021/11/16 07:54:07;;;;;;;27.85;15.95;;;;;;;14.27;65.20;101295.28;4881498;29;20064;-95
2021/11/16 07:56:32;;;;;;;27.13;16.98;;;;;;;14.29;64.82;101301.28;4883261;29;20036;-95
2021/11/16 07:59:02;;;;;;;23.20;15.32;;;;;;;14.32;64.83;101299.41;4881433;29;20029;-95
2021/11/16 08:04:38;;;;;;;27.73;17.60;;;;;;;14.32;64.83;101296.78;4892517;29;20032;-96
2021/11/16 08:07:20;;;;;;;22.88;16.05;;;;;;;14.37;65.02;101300.75;4884690;29;20033;-93
2021/11/16 08:09:51;;;;;;;23.00;15.45;;;;;;;14.41;64.18;101299.59;4881689;29;20131;-95
2021/11/16 08:15:04;;;;;;;26.20;16.73;;;;;;;14.43;65.12;101302.13;4880659;29;20037;-95
2021/11/16 08:17:31;;;;;;;27.08;17.33;;;;;;;14.46;64.73;101307.22;4881792;29;20029;-95
2021/11/16 08:19:59;;;;;;;26.13;16.90;;;;;;;14.51;65.01;101305.09;4884630;29;20033;-95
2021/11/16 08:22:25;;;;;;;25.52;16.05;;;;;;;14.51;64.29;101302.44;4884470;29;20369;-94
2021/11/16 08:24:53;;;;;;;26.88;16.85;;;;;;;14.52;64.56;101301.50;4882339;29;20025;-94
2021/11/16 08:27:40;;;;;;;23.88;15.60;;;;;;;14.61;64.90;101298.25;4880846;29;20044;-93
2021/11/16 08:30:13;;;;;;;24.10;15.38;;;;;;;14.70;64.67;101295.91;4877265;29;20037;-93
2021/11/16 08:32:42;;;;;;;23.88;16.23;;;;;;;14.72;64.49;101296.63;4879325;29;20120;-92
2021/11/16 08:35:11;;;;;;;26.30;16.48;;;;;;;14.77;64.60;101297.13;4881293;29;20115;-92
2021/11/16 08:37:40;;;;;;;21.92;14.80;;;;;;;14.74;64.36;101285.00;4879397;29;20444;-91
2021/11/16 08:40:12;;;;;;;25.58;16.65;;;;;;;14.87;64.53;101293.75;4880091;29;20108;-94
2021/11/16 08:42:42;;;;;;;24.75;16.45;;;;;;;14.91;64.11;101294.38;4880032;29;20029;-93
2021/11/16 08:45:14;;;;;;;24.98;16.38;;;;;;;14.97;64.04;101283.34;4884470;29;20093;-93
2021/11/16 08:47:46;;;;;;;24.65;15.10;;;;;;;15.00;64.16;101277.81;4878043;29;20108;-93
2021/11/16 08:50:23;;;;;;;25.15;15.77;;;;;;;15.03;64.06;101279.41;4879463;29;20116;-94
2021/11/16 08:52:49;;;;;;;23.63;15.07;;;;;;;15.09;64.03;101278.97;4880957;29;20088;-94
2021/11/16 08:55:19;;;;;;;27.50;16.40;;;;;;;15.12;64.00;101278.72;4879467;29;20060;-93
2021/11/16 08:57:48;;;;;;;27.80;16.25;;;;;;;15.01;64.36;101268.94;4876190;29;20032;-89
2021/11/16 09:00:20;;;;;;;24.48;16.00;;;;;;;14.95;64.89;101273.81;4864362;29;20128;-91
2021/11/16 09:02:46;;;;;;;24.17;16.67;;;;;;;15.11;64.75;101271.75;4875862;29;20044;-91
2021/11/16 09:05:13;;;;;;;27.10;18.38;;;;;;;15.10;64.39;101277.16;4877909;29;20088;-91
2021/11/16 09:07:47;;;;;;;27.50;17.98;;;;;;;15.15;64.29;101272.38;4876680;29;20069;-90
2021/11/16 09:10:14;;;;;;;27.35;17.27;;;;;;;15.13;64.37;101275.13;4870436;29;20025;-91
2021/11/16 09:12:52;;;;;;;28.35;17.45;;;;;;;15.22;64.29;101282.38;4873959;29;20101;-93
2021/11/16 09:15:31;;;;;;;24.13;16.23;;;;;;;15.36;63.98;101281.34;4882955;29;20041;-91
2021/11/16 09:18:15;;;;;;;26.42;16.48;;;;;;;15.34;63.97;101270.03;4875112;29;20408;-91
2021/11/16 09:20:43;;;;;;;28.67;17.95;;;;;;;15.29;64.57;101272.19;4871749;29;20119;-92
2021/11/16 09:23:20;;;;;;;27.27;17.17;;;;;;;15.46;64.19;101278.88;4871439;29;20064;-92
2021/11/16 09:25:49;;;;;;;32.67;17.77;;;;;;;15.39;63.95;101269.72;4879437;29;20040;-91
2021/11/16 09:28:36;;;;;;;31.35;18.83;;;;;;;15.46;64.22;101274.44;4887820;29;20028;-91
2021/11/16 09:31:17;;;;;;;24.38;16.50;;;;;;;15.59;63.91;101260.28;4891646;29;20361;-90
2021/11/16 09:33:42;;;;;;;24.08;16.30;;;;;;;15.69;63.83;101258.63;4881173;29;20462;-90
2021/11/16 09:36:09;;;;;;;28.88;17.10;;;;;;;15.67;63.84;101256.06;4881728;29;20041;-90
2021/11/16 09:38:35;;;;;;;31.10;19.10;;;;;;;15.76;63.80;101254.59;4881218;29;20060;-91
2021/11/16 09:41:01;;;;;;;30.55;17.75;;;;;;;15.81;63.30;101252.41;4880607;29;20025;-90
2021/11/16 09:43:27;;;;;;;38.70;18.17;;;;;;;15.96;62.85;101246.91;4880730;29;20041;-92
2021/11/16 09:45:53;;;;;;;32.45;16.73;;;;;;;16.03;62.85;101248.09;4879879;29;20025;-92
2021/11/16 09:48:22;;;;;;;58.15;19.73;;;;;;;16.05;61.68;101243.53;4881689;29;20448;-92
2021/11/16 09:50:47;;;;;;;32.05;17.05;;;;;;;15.93;63.59;101247.97;4862792;29;20405;-92
2021/11/16 09:53:16;;;;;;;30.95;16.10;;;;;;;16.03;63.20;101240.16;4861907;29;20024;-90
2021/11/16 09:55:41;;;;;;;25.25;14.50;;;;;;;16.34;62.44;101243.91;4881408;29;20369;-92
2021/11/16 09:58:19;;;;;;;23.80;15.52;;;;;;;16.44;61.60;101238.72;4880614;29;20036;-90
2021/11/16 10:00:46;;;;;;;23.02;13.40;;;;;;;16.64;62.08;101232.66;4880273;29;20021;-90
2021/11/16 10:03:16;;;;;;;21.83;14.95;;;;;;;17.61;61.13;101229.19;4879033;29;20026;-92
2021/11/16 10:05:48;;;;;;;24.15;14.63;;;;;;;18.72;58.06;101225.78;4880557;29;20025;-92
2021/11/16 10:08:16;;;;;;;22.10;14.52;;;;;;;19.12;54.71;101218.69;4879131;29;20454;-92
2021/11/16 10:10:48;;;;;;;21.35;12.55;;;;;;;20.03;55.27;101221.78;4880541;29;20041;-90
2021/11/16 10:13:17;;;;;;;18.98;12.55;;;;;;;21.00;53.20;101231.91;4876176;29;20096;-90
2021/11/16 10:15:46;;;;;;;24.83;13.82;;;;;;;21.43;51.12;101216.13;4885353;29;20037;-90
2021/11/16 10:18:13;;;;;;;22.70;12.02;;;;;;;22.42;49.58;101228.25;4881599;29;20064;-90
2021/11/16 10:20:42;;;;;;;19.48;11.68;;;;;;;22.80;46.95;101223.31;4873350;29;20033;-90
2021/11/16 10:23:10;;;;;;;16.75;11.38;;;;;;;23.13;46.82;101224.22;4871315;29;20111;-89
2021/11/16 10:25:39;;;;;;;15.18;11.02;;;;;;;22.86;46.85;101221.81;4891999;29;20449;-94
2021/11/16 10:28:08;;;;;;;15.75;11.45;;;;;;;22.19;46.49;101222.59;4884019;29;20484;-90
2021/11/16 10:30:34;;;;;;;15.80;11.38;;;;;;;22.69;46.94;101212.91;4894016;29;20411;-90
2021/11/16 10:33:13;;;;;;;16.20;11.35;;;;;;;22.45;47.84;101211.84;4880840;29;20040;-91
2021/11/16 10:35:49;;;;;;;15.10;9.45;;;;;;;22.36;47.82;101218.19;4876830;29;20017;-91
2021/11/16 10:38:20;;;;;;;16.58;10.88;;;;;;;21.63;48.00;101216.78;4882490;29;20476;-95
2021/11/16 10:40:46;;;;;;;15.60;11.20;;;;;;;21.41;49.28;101209.25;4870150;29;20115;-94
2021/11/16 10:43:12;;;;;;;15.27;10.93;;;;;;;21.22;49.73;101208.41;4878986;29;20503;-92
2021/11/16 10:45:44;;;;;;;17.60;11.13;;;;;;;21.03;49.89;101209.44;4878954;29;20076;-91
2021/11/16 10:48:14;;;;;;;15.85;10.45;;;;;;;20.51;51.77;101207.38;4874909;29;20095;-92
2021/11/16 10:50:42;;;;;;;16.70;10.60;;;;;;;20.34;52.53;101206.34;4867589;29;20025;-95
2021/11/16 10:53:22;;;;;;;18.20;10.85;;;;;;;20.17;52.38;101196.47;4874948;29;20044;-92
2021/11/16 10:55:52;;;;;;;15.80;10.93;;;;;;;19.85;53.95;101189.72;4877479;29;20037;-92
2021/11/16 10:58:20;;;;;;;13.55;10.02;;;;;;;20.09;53.19;101191.88;4877449;29;20029;-91
2021/11/16 11:00:54;;;;;;;13.68;9.55;;;;;;;19.80;53.55;101183.97;4870007;29;20044;-92
2021/11/16 11:03:24;;;;;;;13.65;8.98;;;;;;;20.12;53.79;101178.25;4882898;29;20034;-89
2021/11/16 11:06:04;;;;;;;10.05;7.15;;;;;;;20.03;53.41;101183.63;4881727;29;20589;-90
2021/11/16 11:08:33;;;;;;;12.20;8.10;;;;;;;19.74;54.53;101188.06;4893355;29;20029;-90
2021/11/16 11:11:00;;;;;;;9.68;6.97;;;;;;;19.85;54.29;101178.22;4875806;29;20048;-89
2021/11/16 11:13:30;;;;;;;8.15;5.45;;;;;;;19.72;54.53;101170.56;4877546;29;20115;-91
2021/11/16 11:15:57;;;;;;;6.32;4.22;;;;;;;19.86;54.39;101166.56;4887291;29;20024;-91
2021/11/16 11:18:37;;;;;;;5.90;3.92;;;;;;;19.84;55.51;101164.03;4881903;29;20104;-93
2021/11/16 11:21:07;;;;;;;4.88;3.88;;;;;;;20.11;54.95;101165.91;4876014;29;20492;-91
2021/11/16 11:23:42;;;;;;;10.15;3.90;;;;;;;20.30;54.37;101158.78;4872475;29;20393;-90
2021/11/16 11:26:18;;;;;;;5.20;3.33;;;;;;;19.86;55.66;101161.25;4865653;29;20069;-91
2021/11/16 11:28:53;;;;;;;4.35;2.78;;;;;;;19.91;54.98;101143.00;4875876;29;20071;-89
2021/11/16 11:31:28;;;;;;;5.07;2.72;;;;;;;19.94;55.29;101153.34;4875514;29;20036;-90
2021/11/16 11:33:54;;;;;;;3.83;2.80;;;;;;;20.52;54.80;101147.69;4890722;29;20059;-89
2021/11/16 11:36:25;;;;;;;4.32;3.03;;;;;;;20.83;53.34;101150.00;4886473;29;20396;-88
2021/11/16 11:38:52;;;;;;;5.10;3.42;;;;;;;20.29;53.23;101136.59;4879072;29;20080;-89